Skip Navigation Links
NOAA logo - Click to go to the NOAA homepage
NOAA's National Weather Service
Alaska Aviation Weather Unit
  NWS logo - Click to go to the NWS homepage
Left Navbar Graphic     22 AKST = 07 GMT

   
NOAA is celebrating 200 years of science, service, and stewardship. Visit the NOAA 200th celebration Web site to learn more.
USA.gov is the U.S. Government's official Web portal to all Federal, state and local government Web resources and services.
Facebook
NWS on Facebook

AAWU Home :: Display TAF Add Bookmark
METAR PAPB 230153Z AUTO 17024G35KT 1 3/4SM -RA BR OVC006 04/03 A2964
 RMK AO2 PK WND 17038/0107 RAB0058 CIG 005V010 SLP025 P0002
 T00440033 TSNO $=

SPECI PAPB 230205Z AUTO 17026G35KT 2SM -RA BR OVC006 04/03 A2963 RMK AO2
     PK WND 17035/0154 P0001 T00440033 TSNO $=

SPECI PAPB 230221Z AUTO 17027G35KT 3SM -RA BR OVC006 04/03 A2964 RMK AO2
     PK WND 17035/0154 CIG 005V008 P0001 T00390033 TSNO $=

METAR PAPB 230253Z AUTO 17025G31KT 4SM -RA BR BKN009 OVC013 04/03 A2964
     RMK AO2 PK WND 17035/0232 CIG 005V011 SLP025 P0002 60004
     T00390033 53005 TSNO $=

METAR PAPB 230353Z AUTO 17024G31KT 4SM -RA BR SCT008 OVC018 04/03 A2964
     RMK AO2 PK WND 18034/0343 SLP027 P0002 T00390033 TSNO $=

SPECI PAPB 230435Z AUTO 18020G29KT 5SM -RA BR BKN009 BKN014 OVC021
 04/03 A2967 RMK AO2 PK WND 18032/0408 P0002 T00390028 TSNO $=

SPECI PAPB 230449Z AUTO 18025G32KT 6SM -RA BR SCT009 OVC019 04/03 A2967
     RMK AO2 PK WND 17032/0447 P0003 TSNO $=

METAR PAPB 230453Z AUTO 18024G33KT 6SM -RA BR SCT009 BKN016 OVC021
 04/03 A2967 RMK AO2 PK WND 18033/0453 SLP035 P0003 T00390028
 TSNO $=

METAR PAPB 230553Z AUTO 18020G28KT 7SM -RA OVC010 04/03 A2967 RMK AO2 PK
     WND 19032/0459 CIG 006V012 SLP034 P0003 60012 T00390028 10044
     20039 50009 TSNO $=

METAR PAPB 230653Z AUTO 17024G32KT 8SM -RA OVC012 03/02 A2965 RMK AO2 PK
     WND 17033/0633 SLP028 P0002 T00330022 TSNO $=


NOAA's National Weather Service
Alaska Aviation Weather Unit
6930 Sand Lake Road
Anchorage, AK 99502-1845
Disclaimer
Credits
Glossary
Privacy Policy
About Us
Career Opportunities
Contact AAWU Internet Services Site last modified: April, 17th 2012